Time;durP1;ratioP1;P1;durP2;ratioP2;P2;SDS_P1;SDS_P2;PMS_P1;PMS_P2;Temp;Humidity;BMP_temperature;BMP_pressure;BME280_temperature;BME280_humidity;BME280_pressure;Samples;Min_cycle;Max_cycle;Signal;HPM_P1;HPM_P2
2023/09/20 00:00:11;;;;;;;6.80;3.20;;;16.80;99.90;;;;;;5091628;28;20032;-73
2023/09/20 00:02:40;;;;;;;7.78;3.38;;;16.80;99.90;;;;;;5091246;28;20490;-73
2023/09/20 00:05:14;;;;;;;4.00;3.00;;;16.70;99.90;;;;;;5091429;28;20028;-73
2023/09/20 00:07:41;;;;;;;5.88;3.78;;;16.70;99.90;;;;;;5090962;28;20405;-73
2023/09/20 00:10:12;;;;;;;6.25;3.42;;;16.70;99.90;;;;;;5091156;28;20117;-73
2023/09/20 00:12:40;;;;;;;6.55;3.88;;;16.70;99.90;;;;;;5091545;28;20490;-73
2023/09/20 00:15:10;;;;;;;7.00;3.72;;;16.70;99.90;;;;;;5090792;28;20486;-72
2023/09/20 00:17:36;;;;;;;6.53;3.70;;;16.70;99.90;;;;;;5091203;28;20371;-73
2023/09/20 00:20:11;;;;;;;5.80;3.65;;;16.90;99.90;;;;;;5090927;28;20040;-72
2023/09/20 00:22:47;;;;;;;7.50;3.60;;;17.00;99.90;;;;;;5090575;28;20024;-73
2023/09/20 00:25:14;;;;;;;6.47;3.80;;;17.20;99.90;;;;;;5090922;28;20039;-72
2023/09/20 00:27:42;;;;;;;5.72;3.47;;;17.30;99.90;;;;;;5091369;28;20031;-73
2023/09/20 00:30:14;;;;;;;6.95;3.55;;;17.40;99.90;;;;;;5093103;28;20013;-72
2023/09/20 00:32:40;;;;;;;6.88;3.50;;;17.40;99.90;;;;;;5094714;28;20458;-73
2023/09/20 00:35:11;;;;;;;6.53;3.42;;;17.40;99.90;;;;;;5094572;28;20024;-72
2023/09/20 00:37:41;;;;;;;7.38;3.90;;;17.30;99.90;;;;;;5094676;28;20067;-72
2023/09/20 00:40:15;;;;;;;6.30;3.63;;;17.30;99.90;;;;;;5094446;28;20028;-73
2023/09/20 00:42:42;;;;;;;6.95;3.75;;;17.40;99.90;;;;;;5094505;28;20020;-72
2023/09/20 00:45:09;;;;;;;7.90;3.60;;;17.40;99.90;;;;;;5094525;28;20088;-72
2023/09/20 00:47:40;;;;;;;4.93;3.40;;;17.40;99.90;;;;;;5093932;28;20024;-72
2023/09/20 00:50:12;;;;;;;5.47;3.50;;;17.40;99.90;;;;;;5093944;28;20097;-72
2023/09/20 00:52:43;;;;;;;6.53;3.92;;;17.30;99.90;;;;;;5094887;28;20024;-73
2023/09/20 00:55:15;;;;;;;6.35;3.42;;;17.10;99.90;;;;;;5093975;28;20031;-72
2023/09/20 00:57:45;;;;;;;5.65;3.20;;;16.80;99.90;;;;;;5094147;28;20031;-73
2023/09/20 01:00:21;;;;;;;6.75;3.67;;;16.70;99.90;;;;;;5092723;28;20043;-72
2023/09/20 01:02:58;;;;;;;7.40;3.75;;;16.60;99.90;;;;;;5093817;28;20490;-73
2023/09/20 01:05:25;;;;;;;8.63;4.18;;;16.50;99.90;;;;;;5093818;28;20066;-73
2023/09/20 01:07:53;;;;;;;7.30;4.20;;;16.50;99.90;;;;;;5093742;28;20395;-73
2023/09/20 01:10:25;;;;;;;6.25;4.35;;;16.50;99.90;;;;;;5093814;28;20028;-72
2023/09/20 01:12:57;;;;;;;9.53;4.83;;;16.40;99.90;;;;;;5093563;28;20028;-73
2023/09/20 01:15:24;;;;;;;7.55;4.70;;;16.40;99.90;;;;;;5093783;28;20081;-73
2023/09/20 01:17:56;;;;;;;5.80;4.65;;;16.40;99.90;;;;;;5093654;28;20024;-73
2023/09/20 01:20:24;;;;;;;7.47;4.68;;;16.30;99.90;;;;;;5093153;28;20036;-73
2023/09/20 01:22:51;;;;;;;9.55;5.38;;;16.30;99.90;;;;;;5093938;28;20055;-73
2023/09/20 01:25:38;;;;;;;8.00;4.80;;;16.20;99.90;;;;;;5093450;28;20557;-72
2023/09/20 01:28:08;;;;;;;5.35;4.55;;;16.20;99.90;;;;;;5094063;28;20539;-73
2023/09/20 01:30:36;;;;;;;6.82;4.45;;;16.20;99.90;;;;;;5093299;28;20027;-73
2023/09/20 01:33:05;;;;;;;9.18;4.90;;;16.20;99.90;;;;;;5093832;28;20024;-73
2023/09/20 01:35:31;;;;;;;7.65;4.57;;;16.10;99.90;;;;;;5093011;28;20020;-72
2023/09/20 01:37:58;;;;;;;6.00;4.55;;;16.10;99.90;;;;;;5093319;28;20024;-72
2023/09/20 01:40:33;;;;;;;7.78;4.53;;;16.10;99.90;;;;;;5092815;28;20040;-72
2023/09/20 01:42:59;;;;;;;7.43;4.75;;;16.00;99.90;;;;;;5093153;28;20103;-72
2023/09/20 01:45:26;;;;;;;7.97;4.93;;;16.00;99.90;;;;;;5093136;28;20054;-73
2023/09/20 01:48:00;;;;;;;9.90;4.97;;;15.90;99.90;;;;;;5093199;28;20106;-72
2023/09/20 01:50:26;;;;;;;6.57;4.47;;;15.90;99.90;;;;;;5093468;28;20522;-72
2023/09/20 01:52:55;;;;;;;6.40;4.28;;;16.00;99.90;;;;;;5092974;28;20024;-72
2023/09/20 01:55:22;;;;;;;7.22;4.60;;;16.20;99.90;;;;;;5092887;28;20027;-72
2023/09/20 01:57:48;;;;;;;7.07;4.57;;;16.40;99.90;;;;;;5093159;28;20546;-72
2023/09/20 02:00:37;;;;;;;7.40;4.35;;;16.60;99.90;;;;;;5092978;28;20090;-72
2023/09/20 02:03:08;;;;;;;8.95;4.07;;;16.60;99.90;;;;;;5093025;28;20298;-72
2023/09/20 02:05:36;;;;;;;5.68;4.40;;;16.80;99.90;;;;;;5093124;28;20051;-72
2023/09/20 02:08:02;;;;;;;6.10;4.00;;;16.70;99.90;;;;;;5092392;28;20040;-72
2023/09/20 02:10:28;;;;;;;5.82;3.90;;;16.70;99.90;;;;;;5092879;28;20028;-72
2023/09/20 02:12:56;;;;;;;5.35;4.00;;;16.70;99.90;;;;;;5092991;28;20020;-72
2023/09/20 02:15:24;;;;;;;8.40;3.92;;;16.70;99.90;;;;;;5092678;28;20061;-72
2023/09/20 02:17:50;;;;;;;6.57;4.07;;;16.70;99.90;;;;;;5092323;28;20055;-72
2023/09/20 02:20:20;;;;;;;5.25;3.75;;;16.70;99.90;;;;;;5092757;28;20073;-72
2023/09/20 02:22:47;;;;;;;7.47;4.00;;;16.80;99.90;;;;;;5092955;28;20032;-72
2023/09/20 02:25:13;;;;;;;5.15;4.00;;;16.70;99.90;;;;;;5092931;28;20125;-72
2023/09/20 02:27:43;;;;;;;8.05;4.45;;;16.40;99.90;;;;;;5092463;28;20410;-73
2023/09/20 02:30:15;;;;;;;6.40;4.20;;;16.20;99.90;;;;;;5092339;28;20062;-72
2023/09/20 02:32:41;;;;;;;7.35;4.30;;;16.10;99.90;;;;;;5092408;28;20023;-72
2023/09/20 02:35:07;;;;;;;6.18;4.25;;;16.00;99.90;;;;;;5092179;28;20457;-72
2023/09/20 02:37:34;;;;;;;6.30;4.65;;;15.90;99.90;;;;;;5092261;28;20066;-72
2023/09/20 02:40:07;;;;;;;5.22;4.45;;;15.90;99.90;;;;;;5092174;28;20044;-72
2023/09/20 02:42:47;;;;;;;6.07;4.65;;;15.80;99.90;;;;;;5092133;28;20027;-72
2023/09/20 02:45:14;;;;;;;6.75;4.53;;;15.80;99.90;;;;;;5092117;28;20020;-72
2023/09/20 02:47:43;;;;;;;6.55;4.80;;;15.70;99.90;;;;;;5091648;28;20054;-72
2023/09/20 02:50:12;;;;;;;5.90;4.63;;;15.70;99.90;;;;;;5092015;28;20028;-72
2023/09/20 02:52:39;;;;;;;7.95;4.90;;;15.70;99.90;;;;;;5090807;28;20035;-73
2023/09/20 02:55:07;;;;;;;6.65;4.50;;;15.60;99.90;;;;;;5091657;28;20401;-73
2023/09/20 02:57:38;;;;;;;6.93;4.60;;;15.60;99.90;;;;;;5092023;28;20398;-72
2023/09/20 03:00:15;;;;;;;8.18;4.55;;;15.60;99.90;;;;;;5091732;28;20044;-72
2023/09/20 03:02:44;;;;;;;6.32;4.93;;;15.60;99.90;;;;;;5091150;28;20029;-72
2023/09/20 03:05:15;;;;;;;6.72;4.32;;;15.70;99.90;;;;;;5091514;28;20509;-72
2023/09/20 03:07:47;;;;;;;5.88;4.30;;;15.60;99.90;;;;;;5091630;28;20055;-72
2023/09/20 03:10:15;;;;;;;5.43;3.85;;;15.60;99.90;;;;;;5092053;28;20032;-72
2023/09/20 03:12:44;;;;;;;4.10;3.42;;;15.70;99.90;;;;;;5091637;28;20024;-72
2023/09/20 03:15:17;;;;;;;7.35;3.72;;;15.80;99.90;;;;;;5091471;28;20056;-73
2023/09/20 03:17:47;;;;;;;4.85;3.08;;;15.90;99.90;;;;;;5091636;28;20046;-72
2023/09/20 03:20:23;;;;;;;6.13;3.30;;;16.00;99.90;;;;;;5091997;28;20071;-72
2023/09/20 03:22:53;;;;;;;7.18;3.00;;;16.10;99.90;;;;;;5091643;28;20020;-72
2023/09/20 03:25:22;;;;;;;6.53;3.15;;;16.10;99.90;;;;;;5091369;28;20028;-72
2023/09/20 03:27:49;;;;;;;6.55;3.15;;;16.20;99.90;;;;;;5091865;28;20016;-72
2023/09/20 03:30:20;;;;;;;6.53;2.90;;;16.40;99.90;;;;;;5091204;28;20028;-72
2023/09/20 03:32:50;;;;;;;7.75;3.17;;;16.60;99.90;;;;;;5091153;28;20429;-72
2023/09/20 03:35:16;;;;;;;5.78;2.90;;;16.70;99.90;;;;;;5091399;28;20042;-72
2023/09/20 03:37:43;;;;;;;5.30;2.85;;;16.70;99.90;;;;;;5091711;28;20024;-72
2023/09/20 03:40:11;;;;;;;7.80;3.20;;;16.80;99.90;;;;;;5091423;28;20028;-72
2023/09/20 03:42:40;;;;;;;5.68;2.67;;;16.90;99.90;;;;;;5091575;28;20027;-72
2023/09/20 03:45:10;;;;;;;6.05;2.70;;;16.80;99.90;;;;;;5091160;28;20077;-72
2023/09/20 03:47:39;;;;;;;5.45;3.20;;;16.70;99.90;;;;;;5091391;28;20030;-72
2023/09/20 03:50:06;;;;;;;7.10;3.42;;;16.80;99.90;;;;;;5091541;28;20028;-72
2023/09/20 03:52:31;;;;;;;5.15;3.20;;;16.70;99.90;;;;;;5091661;28;20453;-72
2023/09/20 03:54:57;;;;;;;6.82;2.83;;;16.80;99.90;;;;;;5091638;28;20111;-72
2023/09/20 03:57:24;;;;;;;4.65;2.85;;;16.80;99.90;;;;;;5091285;28;20021;-72
2023/09/20 03:59:53;;;;;;;6.63;2.92;;;16.70;99.90;;;;;;5090618;28;20036;-73
2023/09/20 04:02:23;;;;;;;6.03;3.20;;;16.60;99.90;;;;;;5091036;28;20032;-73
2023/09/20 04:04:53;;;;;;;7.00;3.40;;;16.40;99.90;;;;;;5093561;28;20036;-72
2023/09/20 04:07:19;;;;;;;5.95;3.15;;;16.20;99.90;;;;;;5094898;28;20607;-73
2023/09/20 04:09:45;;;;;;;8.63;3.50;;;16.10;99.90;;;;;;5094972;28;20020;-73
2023/09/20 04:12:12;;;;;;;9.68;3.42;;;16.00;99.90;;;;;;5094899;28;20030;-73
2023/09/20 04:14:38;;;;;;;6.47;4.00;;;15.90;99.90;;;;;;5094560;28;20448;-73
2023/09/20 04:17:07;;;;;;;6.65;3.95;;;15.80;99.90;;;;;;5094891;28;20482;-73
2023/09/20 04:19:33;;;;;;;6.80;3.80;;;15.80;99.90;;;;;;5095736;28;20050;-73
2023/09/20 04:22:04;;;;;;;6.13;3.72;;;15.70;99.90;;;;;;5095008;28;20039;-73
2023/09/20 04:24:30;;;;;;;7.53;3.88;;;15.70;99.90;;;;;;5094920;28;20020;-73
2023/09/20 04:26:56;;;;;;;4.90;3.38;;;15.70;99.90;;;;;;5094736;28;20085;-73
2023/09/20 04:29:22;;;;;;;6.78;3.50;;;15.60;99.90;;;;;;5094941;28;20044;-73
2023/09/20 04:31:49;;;;;;;4.70;3.30;;;15.60;99.90;;;;;;5094979;28;20028;-73
2023/09/20 04:34:15;;;;;;;5.15;3.00;;;15.70;99.90;;;;;;5094695;28;20028;-72
2023/09/20 04:36:44;;;;;;;5.50;3.45;;;15.70;99.90;;;;;;5094821;28;20024;-73
2023/09/20 04:39:16;;;;;;;7.15;3.63;;;15.60;99.90;;;;;;5094534;28;20036;-73
2023/09/20 04:41:42;;;;;;;7.63;3.40;;;15.60;99.90;;;;;;5094253;28;20024;-73
2023/09/20 04:44:08;;;;;;;4.45;3.10;;;15.50;99.90;;;;;;5094059;28;20031;-73
2023/09/20 04:46:35;;;;;;;5.75;3.42;;;15.50;99.90;;;;;;5094129;28;20508;-73
2023/09/20 04:49:05;;;;;;;7.15;3.33;;;15.50;99.90;;;;;;5094464;28;20379;-73
2023/09/20 04:51:31;;;;;;;6.00;3.28;;;15.40;99.90;;;;;;5094117;28;20024;-69
2023/09/20 04:53:58;;;;;;;7.03;3.58;;;15.50;99.90;;;;;;5093977;28;20398;-72
2023/09/20 04:56:24;;;;;;;7.32;3.85;;;15.60;99.90;;;;;;5094510;28;20052;-73
2023/09/20 04:58:50;;;;;;;6.35;3.50;;;15.50;99.90;;;;;;5093977;28;20020;-73
2023/09/20 05:01:17;;;;;;;6.05;3.60;;;15.50;99.90;;;;;;5093872;28;20039;-73
2023/09/20 05:03:43;;;;;;;8.18;3.60;;;15.70;99.90;;;;;;5094360;28;20020;-73
2023/09/20 05:06:09;;;;;;;5.70;3.00;;;15.90;99.90;;;;;;5094329;28;20039;-73
2023/09/20 05:08:36;;;;;;;5.68;3.15;;;15.90;99.90;;;;;;5094170;28;20079;-74
2023/09/20 05:11:04;;;;;;;5.53;3.03;;;16.00;99.90;;;;;;5093644;28;20028;-72
2023/09/20 05:13:30;;;;;;;5.10;2.97;;;16.00;99.90;;;;;;5093817;28;20031;-73
2023/09/20 05:15:55;;;;;;;4.93;3.20;;;16.10;99.90;;;;;;5092744;28;20024;-73
2023/09/20 05:18:21;;;;;;;4.78;3.05;;;16.20;99.90;;;;;;5092503;28;20123;-73
2023/09/20 05:20:47;;;;;;;6.10;3.13;;;16.20;99.90;;;;;;5093577;28;20123;-73
2023/09/20 05:23:13;;;;;;;6.07;2.92;;;16.20;99.90;;;;;;5093875;28;20040;-73
2023/09/20 05:25:39;;;;;;;5.45;3.20;;;16.20;99.90;;;;;;5093668;28;20023;-73
2023/09/20 05:28:05;;;;;;;7.38;3.40;;;16.20;99.90;;;;;;5093838;28;20023;-73
2023/09/20 05:30:33;;;;;;;7.78;3.50;;;16.20;99.90;;;;;;5093550;28;20024;-73
2023/09/20 05:32:59;;;;;;;7.60;3.67;;;16.20;99.90;;;;;;5093733;28;20024;-73
2023/09/20 05:35:28;;;;;;;6.97;3.92;;;16.00;99.90;;;;;;5093320;28;20535;-73
2023/09/20 05:37:53;;;;;;;6.95;3.47;;;15.80;99.90;;;;;;5093299;28;20486;-73
2023/09/20 05:40:21;;;;;;;5.97;3.90;;;15.70;99.90;;;;;;5093258;28;20024;-72
2023/09/20 05:42:50;;;;;;;7.78;4.00;;;15.60;99.90;;;;;;5093122;28;20030;-73
2023/09/20 05:45:17;;;;;;;8.68;4.22;;;15.50;99.90;;;;;;5092958;28;20024;-73
2023/09/20 05:47:49;;;;;;;7.28;4.32;;;15.40;99.90;;;;;;5093165;28;20413;-73
2023/09/20 05:50:15;;;;;;;6.80;4.55;;;15.40;99.90;;;;;;5093450;28;20032;-73
2023/09/20 05:52:43;;;;;;;7.28;4.85;;;15.40;99.90;;;;;;5093415;28;20425;-72
2023/09/20 05:55:13;;;;;;;8.52;4.90;;;15.30;99.90;;;;;;5092889;28;20097;-73
2023/09/20 05:57:40;;;;;;;11.07;4.82;;;15.30;99.90;;;;;;5093512;28;20024;-73
2023/09/20 06:00:11;;;;;;;8.27;5.18;;;15.20;99.90;;;;;;5092794;28;20122;-73
2023/09/20 06:02:37;;;;;;;7.07;4.85;;;15.20;99.90;;;;;;5091691;28;20032;-73
2023/09/20 06:05:03;;;;;;;8.13;5.53;;;15.20;99.90;;;;;;5093488;28;20026;-73
2023/09/20 06:07:30;;;;;;;9.20;4.90;;;15.20;99.90;;;;;;5091787;28;20074;-73
2023/09/20 06:09:56;;;;;;;7.82;5.75;;;15.20;99.90;;;;;;5092444;28;20027;-73
2023/09/20 06:12:21;;;;;;;7.60;5.30;;;15.20;99.90;;;;;;5092929;28;20032;-73
2023/09/20 06:14:47;;;;;;;8.63;5.25;;;15.20;99.90;;;;;;5092887;28;20119;-73
2023/09/20 06:17:12;;;;;;;10.02;5.20;;;15.20;99.90;;;;;;5092939;28;20040;-73
2023/09/20 06:19:38;;;;;;;6.88;5.70;;;15.20;99.90;;;;;;5092576;28;20032;-73
2023/09/20 06:22:04;;;;;;;7.88;5.25;;;15.20;99.90;;;;;;5092370;28;20401;-73
2023/09/20 06:24:29;;;;;;;11.30;5.45;;;15.20;99.90;;;;;;5092939;28;20032;-73
2023/09/20 06:26:55;;;;;;;8.63;5.32;;;15.20;99.90;;;;;;5092253;28;20070;-73
2023/09/20 06:29:21;;;;;;;6.43;4.78;;;15.20;99.90;;;;;;5092489;28;20024;-73
2023/09/20 06:31:47;;;;;;;11.13;5.82;;;15.20;99.90;;;;;;5092624;28;20502;-73
2023/09/20 06:34:17;;;;;;;7.65;5.30;;;15.30;99.90;;;;;;5092741;28;20031;-73
2023/09/20 06:36:43;;;;;;;9.20;5.10;;;15.40;99.90;;;;;;5091941;28;20027;-73
2023/09/20 06:39:08;;;;;;;8.15;5.22;;;15.60;99.90;;;;;;5092305;28;20038;-72
2023/09/20 06:41:34;;;;;;;7.43;5.28;;;15.80;99.90;;;;;;5092066;28;20528;-73
2023/09/20 06:44:00;;;;;;;8.15;4.82;;;15.90;99.90;;;;;;5092236;28;20024;-73
2023/09/20 06:46:26;;;;;;;9.25;5.32;;;16.00;99.90;;;;;;5091861;28;20506;-73
2023/09/20 06:48:55;;;;;;;7.82;4.88;;;16.10;99.90;;;;;;5092625;28;20031;-73
2023/09/20 06:51:21;;;;;;;11.35;4.97;;;16.10;99.90;;;;;;5091797;28;20032;-73
2023/09/20 06:53:48;;;;;;;8.80;5.07;;;16.10;99.90;;;;;;5091827;28;20038;-72
2023/09/20 06:56:14;;;;;;;7.18;4.25;;;16.30;99.90;;;;;;5092234;28;20036;-73
2023/09/20 06:58:40;;;;;;;8.02;4.10;;;16.30;99.90;;;;;;5091728;28;20375;-73
2023/09/20 07:01:06;;;;;;;6.35;3.60;;;16.30;99.90;;;;;;5091783;28;20034;-73
2023/09/20 07:03:32;;;;;;;9.40;3.85;;;16.40;99.90;;;;;;5091657;28;20060;-73
2023/09/20 07:05:58;;;;;;;6.95;3.60;;;16.30;99.90;;;;;;5092282;28;20097;-73
2023/09/20 07:08:23;;;;;;;7.65;3.65;;;16.30;99.90;;;;;;5091430;28;20283;-73
2023/09/20 07:10:50;;;;;;;6.00;3.30;;;16.30;99.90;;;;;;5092324;28;20055;-73
2023/09/20 07:13:18;;;;;;;6.93;3.30;;;16.20;99.90;;;;;;5091831;28;20035;-73
2023/09/20 07:15:44;;;;;;;5.97;3.40;;;16.20;99.90;;;;;;5091729;28;20028;-73
2023/09/20 07:18:13;;;;;;;6.60;3.03;;;16.30;99.90;;;;;;5091753;28;20119;-73
2023/09/20 07:20:40;;;;;;;5.78;3.03;;;16.30;99.90;;;;;;5091838;28;20123;-73
2023/09/20 07:23:12;;;;;;;7.60;3.20;;;16.40;99.90;;;;;;5091299;28;20012;-73
2023/09/20 07:25:39;;;;;;;6.18;3.10;;;16.40;99.90;;;;;;5091609;28;20093;-73
2023/09/20 07:28:06;;;;;;;6.07;3.50;;;16.40;99.90;;;;;;5091425;28;20046;-73
2023/09/20 07:30:34;;;;;;;6.47;3.25;;;16.50;99.90;;;;;;5091424;28;20035;-73
2023/09/20 07:33:03;;;;;;;5.13;3.42;;;16.60;99.90;;;;;;5091502;28;20024;-73
2023/09/20 07:35:37;;;;;;;5.10;2.78;;;16.70;99.90;;;;;;5091837;28;20067;-73
2023/09/20 07:38:12;;;;;;;7.43;2.80;;;16.60;99.90;;;;;;5091038;28;20383;-73
2023/09/20 07:40:40;;;;;;;5.20;3.47;;;16.70;99.90;;;;;;5095573;28;20032;-73
2023/09/20 07:43:06;;;;;;;5.65;2.90;;;16.80;99.90;;;;;;5096068;28;20024;-73
2023/09/20 07:45:33;;;;;;;5.22;3.10;;;16.80;99.90;;;;;;5095362;28;20103;-73
2023/09/20 07:48:00;;;;;;;6.55;2.95;;;16.90;99.90;;;;;;5095189;28;20047;-73
2023/09/20 07:50:26;;;;;;;6.30;2.90;;;17.00;99.90;;;;;;5095671;28;20073;-73
2023/09/20 07:52:52;;;;;;;6.57;3.10;;;17.10;99.90;;;;;;5095522;28;20513;-73
2023/09/20 07:55:18;;;;;;;5.03;3.10;;;17.10;99.90;;;;;;5095548;28;20048;-73
2023/09/20 07:57:44;;;;;;;6.78;3.00;;;17.20;99.90;;;;;;5095404;28;20024;-72
2023/09/20 08:00:10;;;;;;;5.32;3.08;;;17.30;99.90;;;;;;5095641;28;20097;-73
2023/09/20 08:02:38;;;;;;;6.60;3.15;;;17.40;99.90;;;;;;5095183;28;20081;-72
2023/09/20 08:05:05;;;;;;;6.68;3.35;;;17.50;99.90;;;;;;5094744;28;20028;-71
2023/09/20 08:07:31;;;;;;;7.55;4.03;;;17.60;99.90;;;;;;5095190;28;20040;-71
2023/09/20 08:09:56;;;;;;;7.75;4.20;;;17.80;99.90;;;;;;5095403;28;20042;-70
2023/09/20 08:12:22;;;;;;;6.03;3.88;;;18.00;99.90;;;;;;5094834;28;20534;-70
2023/09/20 08:14:48;;;;;;;6.43;4.32;;;18.30;99.90;;;;;;5095006;28;20433;-71
2023/09/20 08:19:58;;;;;;;6.88;3.90;;;18.70;99.90;;;;;;5094621;28;20047;-70
2023/09/20 08:22:23;;;;;;;6.45;4.07;;;18.80;99.90;;;;;;5095075;28;20020;-70
2023/09/20 09:00:35;;;;;;;7.82;5.10;;;19.50;99.90;;;;;;5094006;28;20096;-73
2023/09/20 09:03:03;;;;;;;7.38;4.95;;;19.60;99.90;;;;;;5093517;28;20493;-72
2023/09/20 09:05:30;;;;;;;6.82;4.90;;;19.70;99.90;;;;;;5094441;28;20024;-72
2023/09/20 09:08:01;;;;;;;6.25;4.85;;;19.80;99.90;;;;;;5093908;28;20040;-73
2023/09/20 09:10:27;;;;;;;7.70;4.90;;;19.90;99.90;;;;;;5093973;28;20452;-73
2023/09/20 09:12:54;;;;;;;5.55;4.88;;;19.90;99.90;;;;;;5094506;28;20039;-73
2023/09/20 09:15:21;;;;;;;5.38;4.68;;;19.90;99.90;;;;;;5093510;28;20028;-72
2023/09/20 09:17:47;;;;;;;7.25;4.85;;;20.00;99.90;;;;;;5093868;28;20346;-73
2023/09/20 09:20:21;;;;;;;6.57;4.68;;;20.10;99.90;;;;;;5093732;28;20451;-72
2023/09/20 09:22:47;;;;;;;5.97;4.47;;;20.20;99.90;;;;;;5093711;28;20032;-72
2023/09/20 09:25:16;;;;;;;6.40;5.00;;;20.40;99.90;;;;;;5093913;28;20036;-71
2023/09/20 09:27:43;;;;;;;8.63;4.78;;;20.50;99.90;;;;;;5093459;28;20032;-70
2023/09/20 09:30:11;;;;;;;6.25;4.50;;;20.80;99.90;;;;;;5093257;28;20032;-70
2023/09/20 09:32:38;;;;;;;16.05;5.20;;;20.80;99.90;;;;;;5093428;28;20031;-70
2023/09/20 09:35:06;;;;;;;6.65;4.30;;;21.00;99.90;;;;;;5093239;28;20393;-71
2023/09/20 09:37:32;;;;;;;5.90;4.47;;;21.10;99.90;;;;;;5093240;28;20089;-70
2023/09/20 09:40:02;;;;;;;6.20;4.40;;;21.30;99.90;;;;;;5093227;28;20103;-69
2023/09/20 09:42:28;;;;;;;5.75;4.20;;;21.40;99.90;;;;;;5093526;28;20540;-69
2023/09/20 09:44:55;;;;;;;6.95;4.25;;;21.40;99.90;;;;;;5093101;28;20024;-70
2023/09/20 09:47:22;;;;;;;7.00;3.97;;;21.60;99.90;;;;;;5092614;28;20386;-70
2023/09/20 09:49:50;;;;;;;8.27;4.30;;;21.80;99.90;;;;;;5093070;28;20031;-70
2023/09/20 09:52:23;;;;;;;5.97;3.97;;;22.00;99.90;;;;;;5093353;28;20024;-74
2023/09/20 09:54:51;;;;;;;7.13;3.67;;;22.00;99.90;;;;;;5093092;28;20020;-70
2023/09/20 09:57:19;;;;;;;5.13;4.20;;;22.20;99.90;;;;;;5092722;28;20394;-70
2023/09/20 09:59:46;;;;;;;7.90;4.10;;;22.20;99.90;;;;;;5092914;28;20044;-70
2023/09/20 10:02:19;;;;;;;7.20;4.00;;;22.30;99.90;;;;;;5091753;28;20059;-69
2023/09/20 10:05:00;;;;;;;4.85;2.90;;;22.50;99.90;;;;;;5092693;28;20025;-70
2023/09/20 10:07:33;;;;;;;4.93;3.30;;;22.60;99.90;;;;;;5092520;28;20055;-70
2023/09/20 10:10:08;;;;;;;;;;;22.60;99.90;;;;;;5092990;28;20023;-69
2023/09/20 10:12:37;;;;;;;5.13;2.90;;;22.70;99.90;;;;;;5092927;28;20418;-71
2023/09/20 10:15:06;;;;;;;4.95;3.22;;;22.80;99.90;;;;;;5092460;28;20470;-70
2023/09/20 10:17:33;;;;;;;4.82;3.10;;;22.80;99.90;;;;;;5091842;28;20054;-70
2023/09/20 10:19:58;;;;;;;4.78;3.22;;;22.90;99.90;;;;;;5092292;28;20052;-69
2023/09/20 10:22:26;;;;;;;6.55;3.03;;;23.00;99.90;;;;;;5091958;28;20058;-71
2023/09/20 10:24:58;;;;;;;4.72;2.80;;;23.00;99.90;;;;;;5092331;28;20045;-71
2023/09/20 10:27:27;;;;;;;6.63;3.10;;;23.00;99.90;;;;;;5092080;28;20043;-70
2023/09/20 10:30:14;;;;;;;6.70;3.42;;;23.10;99.90;;;;;;5092264;28;20035;-70
2023/09/20 10:32:48;;;;;;;5.40;3.22;;;23.00;99.90;;;;;;5092335;28;20027;-71
2023/09/20 10:35:21;;;;;;;5.07;2.90;;;23.00;99.90;;;;;;5092007;28;20078;-70
2023/09/20 10:38:09;;;;;;;6.65;3.03;;;23.00;99.90;;;;;;5092722;28;20403;-71
2023/09/20 10:43:13;;;;;;;4.68;3.03;;;23.10;99.90;;;;;;5092282;28;20055;-71
2023/09/20 10:45:40;;;;;;;7.07;3.05;;;23.20;99.90;;;;;;5091519;28;20078;-71
2023/09/20 10:48:15;;;;;;;5.90;3.03;;;23.40;99.90;;;;;;5091820;28;20024;-70
2023/09/20 10:50:47;;;;;;;6.45;2.90;;;23.40;99.90;;;;;;5091821;28;20062;-71
2023/09/20 10:53:13;;;;;;;4.80;3.00;;;23.50;99.90;;;;;;5092156;28;20039;-70
2023/09/20 10:55:39;;;;;;;5.38;2.90;;;23.60;99.90;;;;;;5091910;28;20032;-70
2023/09/20 10:58:05;;;;;;;5.68;3.03;;;23.60;99.90;;;;;;5091644;28;20032;-71
2023/09/20 11:00:37;;;;;;;7.35;2.97;;;23.70;99.90;;;;;;5091053;28;20130;-70
2023/09/20 11:03:09;;;;;;;4.53;2.58;;;23.70;99.90;;;;;;5090570;28;20036;-70
2023/09/20 11:05:35;;;;;;;7.13;3.28;;;23.80;99.90;;;;;;5091669;28;20024;-70
2023/09/20 11:08:11;;;;;;;7.70;3.20;;;23.90;99.90;;;;;;5091400;28;20520;-70
2023/09/20 11:10:43;;;;;;;5.28;2.90;;;24.00;99.90;;;;;;5091398;28;20027;-70
2023/09/20 11:13:11;;;;;;;6.43;2.95;;;24.20;99.90;;;;;;5091227;28;20548;-70
2023/09/20 11:15:46;;;;;;;6.75;2.60;;;24.40;99.90;;;;;;5091045;28;20028;-70
2023/09/20 11:18:16;;;;;;;7.15;3.10;;;24.40;99.90;;;;;;5091519;28;20115;-71
2023/09/20 11:20:43;;;;;;;7.47;3.00;;;24.40;99.90;;;;;;5091379;28;20571;-70
2023/09/20 11:23:09;;;;;;;7.03;2.97;;;24.40;99.90;;;;;;5091653;28;20406;-70
2023/09/20 11:25:36;;;;;;;4.50;2.60;;;24.50;99.90;;;;;;5091394;28;20020;-70
2023/09/20 11:28:04;;;;;;;5.53;2.55;;;24.50;99.90;;;;;;5091051;28;20024;-70
2023/09/20 11:30:33;;;;;;;6.60;2.60;;;24.40;99.90;;;;;;5091226;28;20109;-71
2023/09/20 11:32:59;;;;;;;6.63;2.60;;;24.60;99.90;;;;;;5091752;28;20486;-71
2023/09/20 11:35:34;;;;;;;5.72;3.03;;;24.60;99.90;;;;;;5091192;28;20064;-71
2023/09/20 11:38:04;;;;;;;5.32;2.72;;;24.80;99.90;;;;;;5091180;28;20367;-71
2023/09/20 11:40:37;;;;;;;5.63;2.97;;;24.80;99.90;;;;;;5091482;28;20388;-71
2023/09/20 11:43:06;;;;;;;6.05;3.03;;;24.90;99.90;;;;;;5091122;28;20028;-71
2023/09/20 11:45:41;;;;;;;6.32;2.90;;;24.90;99.90;;;;;;5091757;28;20118;-71
2023/09/20 11:48:12;;;;;;;7.30;3.00;;;25.00;99.90;;;;;;5091101;28;20032;-70
2023/09/20 11:50:42;;;;;;;7.40;2.88;;;24.90;99.90;;;;;;5091398;28;20402;-71
2023/09/20 11:53:16;;;;;;;6.30;2.80;;;24.80;99.90;;;;;;5091248;28;20095;-71
2023/09/20 11:55:43;;;;;;;7.50;2.70;;;24.80;99.90;;;;;;5091314;28;20032;-71
2023/09/20 11:58:09;;;;;;;8.18;3.08;;;24.80;99.90;;;;;;5091119;28;20494;-71
2023/09/20 12:00:35;;;;;;;5.15;2.85;;;24.90;99.90;;;;;;5090684;28;20502;-70
2023/09/20 12:03:02;;;;;;;5.60;2.80;;;25.10;99.90;;;;;;5090949;28;20032;-71
2023/09/20 12:05:28;;;;;;;8.35;3.45;;;25.10;99.90;;;;;;5091376;28;20028;-71
2023/09/20 12:08:01;;;;;;;6.20;3.05;;;25.00;99.90;;;;;;5090851;28;20060;-71
2023/09/20 12:10:29;;;;;;;6.53;3.38;;;24.70;99.90;;;;;;5090842;28;20054;-71
2023/09/20 12:12:55;;;;;;;8.82;3.65;;;24.40;99.90;;;;;;5090645;28;20016;-71
2023/09/20 12:15:22;;;;;;;7.15;2.85;;;24.10;99.90;;;;;;5091346;28;20107;-71
2023/09/20 12:17:50;;;;;;;7.03;3.00;;;24.00;99.90;;;;;;5090891;28;20031;-72
2023/09/20 12:20:17;;;;;;;5.43;3.10;;;24.00;99.90;;;;;;5089494;28;20043;-71
2023/09/20 12:22:43;;;;;;;7.88;3.22;;;24.00;99.90;;;;;;5090869;28;20440;-71
2023/09/20 12:25:15;;;;;;;8.63;3.13;;;24.20;99.90;;;;;;5092030;28;20081;-71
2023/09/20 12:27:43;;;;;;;8.90;3.10;;;24.40;99.90;;;;;;5094436;28;20371;-71
2023/09/20 12:30:09;;;;;;;9.00;3.67;;;24.30;99.90;;;;;;5094508;28;20104;-71
2023/09/20 12:32:34;;;;;;;7.20;3.50;;;24.30;99.90;;;;;;5093180;28;20035;-71
2023/09/20 12:35:00;;;;;;;7.03;3.15;;;24.40;99.90;;;;;;5094621;28;20028;-71
2023/09/20 12:37:26;;;;;;;10.55;3.33;;;24.50;99.90;;;;;;5094464;28;20107;-71
2023/09/20 12:39:52;;;;;;;9.05;3.38;;;24.60;99.90;;;;;;5094648;28;20403;-71
2023/09/20 12:42:18;;;;;;;6.60;3.15;;;24.60;99.90;;;;;;5094332;28;20070;-71
2023/09/20 12:44:44;;;;;;;7.70;3.03;;;24.60;99.90;;;;;;5094351;28;20032;-71
2023/09/20 12:47:10;;;;;;;6.30;3.40;;;24.60;99.90;;;;;;5094559;28;20035;-71
2023/09/20 12:49:36;;;;;;;6.97;3.03;;;24.70;99.90;;;;;;5094267;28;20076;-70
2023/09/20 12:52:03;;;;;;;6.35;2.80;;;24.70;99.90;;;;;;5094132;28;20077;-71
2023/09/20 12:54:30;;;;;;;6.38;2.65;;;24.70;99.90;;;;;;5094083;28;20024;-71
2023/09/20 12:56:57;;;;;;;9.38;3.45;;;24.80;99.90;;;;;;5093729;28;20525;-70
2023/09/20 12:59:26;;;;;;;5.00;2.78;;;25.00;99.90;;;;;;5093872;28;20085;-71
2023/09/20 13:01:54;;;;;;;7.82;2.80;;;25.20;99.90;;;;;;5093773;28;20036;-71
2023/09/20 13:04:20;;;;;;;6.70;2.80;;;25.30;99.90;;;;;;5094449;28;20497;-71
2023/09/20 13:06:46;;;;;;;8.32;2.97;;;25.30;99.90;;;;;;5094068;28;20044;-70
2023/09/20 13:09:14;;;;;;;6.80;2.90;;;25.30;99.90;;;;;;5093722;28;20470;-71
2023/09/20 13:11:41;;;;;;;6.82;2.97;;;25.40;99.90;;;;;;5094004;28;20491;-70
2023/09/20 13:14:07;;;;;;;6.38;2.92;;;25.40;99.90;;;;;;5093686;28;20111;-71
2023/09/20 13:16:34;;;;;;;5.40;2.88;;;25.50;99.90;;;;;;5093941;28;20032;-70
2023/09/20 13:19:02;;;;;;;7.13;2.92;;;25.50;99.90;;;;;;5093810;28;20440;-70
2023/09/20 13:21:28;;;;;;;6.82;2.83;;;25.40;99.90;;;;;;5093385;28;20047;-71
2023/09/20 13:23:58;;;;;;;8.65;2.88;;;25.50;99.90;;;;;;5093537;28;20028;-70
2023/09/20 13:26:23;;;;;;;5.28;2.90;;;25.50;99.90;;;;;;5093908;28;20031;-71
2023/09/20 13:28:50;;;;;;;5.57;3.25;;;25.70;99.90;;;;;;5093544;28;20028;-69
2023/09/20 13:31:17;;;;;;;5.43;2.92;;;25.60;99.90;;;;;;5093372;28;20016;-70
2023/09/20 13:33:43;;;;;;;5.05;2.72;;;25.70;99.90;;;;;;5093466;28;20036;-70